Terminal Aerodrome Forecast
Issued by NWS

Home | Current Version | Previous Version | Graphics & Text | Print | Product List | Glossary On
Versions: 1 2 3 4 5 6 7 8 9 10 11 12 13 14 15 16 17 18 19 20 21 22 23 24 25 26 27 28 29 30 31 32
000
FTUS43 KLOT 281100
TAFMDW
TAF
KMDW 281140Z 2812/0112 23003KT P6SM FEW250
     FM281600 17007KT P6SM SCT120
     FM010000 15006KT P6SM OVC050
     FM010200 16006KT 4SM -SN SCT018 OVC025
      TEMPO 0103/0106 2SM -SN BKN015
     FM010800 18005KT P6SM SCT025 OVC045=

USA.gov is the U.S. government's official web portal to all federal, state and local government web resources and services.